Time,TemperatureF,DewpointF,PressureIn,WindDirection,WindDirectionDegrees,WindSpeedMPH,WindSpeedGustMPH,Humidity,HourlyPrecipIn,Conditions,Clouds,dailyrainin,SoftwareType,DateUTC
2013-03-30 00:00:00,39.2,24.4,30.22,NNW,342,4.0,4.0,55,0.00,,---,0.00,VWS V14.01,2013-03-30 04:00:00,
2013-03-30 00:05:00,39.2,24.8,30.22,NNW,342,4.0,4.0,56,0.00,,---,0.00,VWS V14.01,2013-03-30 04:05:00,
2013-03-30 00:10:00,39.0,24.2,30.22,NNW,334,4.0,4.0,55,0.00,,---,0.00,VWS V14.01,2013-03-30 04:10:00,
2013-03-30 00:15:00,39.0,24.2,30.22,NNW,334,3.0,3.0,55,0.00,,---,0.00,VWS V14.01,2013-03-30 04:15:00,
2013-03-30 00:20:00,38.9,24.1,30.21,NNW,334,4.0,4.0,55,0.00,,---,0.00,VWS V14.01,2013-03-30 04:20:00,
2013-03-30 00:25:00,38.9,23.7,30.21,NNW,334,3.0,3.0,54,0.00,,---,0.00,VWS V14.01,2013-03-30 04:25:00,
2013-03-30 00:30:00,38.7,23.9,30.21,NNW,334,3.0,4.0,55,0.00,,---,0.00,VWS V14.01,2013-03-30 04:30:00,
2013-03-30 00:35:00,38.7,23.9,30.21,NNW,334,3.0,3.0,55,0.00,,---,0.00,VWS V14.01,2013-03-30 04:35:00,
2013-03-30 00:40:00,38.7,23.9,30.21,NNW,334,3.0,4.0,55,0.00,,---,0.00,VWS V14.01,2013-03-30 04:40:00,
2013-03-30 00:45:00,38.7,24.4,30.21,NNW,334,3.0,4.0,56,0.00,,---,0.00,VWS V14.01,2013-03-30 04:45:00,
2013-03-30 00:50:00,38.6,24.3,30.21,NNW,334,3.0,3.0,56,0.00,,---,0.00,VWS V14.01,2013-03-30 04:50:00,
2013-03-30 00:55:00,38.4,24.9,30.21,NNW,334,3.0,3.0,58,0.00,,---,0.00,VWS V14.01,2013-03-30 04:55:00,
2013-03-30 01:00:00,38.3,25.2,30.21,NNW,334,2.0,3.0,59,0.00,,---,0.00,VWS V14.01,2013-03-30 05:00:00,
2013-03-30 01:05:00,38.0,25.4,30.21,NNW,334,2.0,3.0,60,0.00,,---,0.00,VWS V14.01,2013-03-30 05:05:00,
2013-03-30 01:10:00,37.7,25.1,30.21,NNW,334,3.0,4.0,60,0.00,,---,0.00,VWS V14.01,2013-03-30 05:10:00,
2013-03-30 01:15:00,37.6,25.0,30.21,NNW,333,3.0,4.0,60,0.00,,---,0.00,VWS V14.01,2013-03-30 05:15:00,
2013-03-30 01:20:00,37.6,24.6,30.21,NNW,333,4.0,4.0,59,0.00,,---,0.00,VWS V14.01,2013-03-30 05:20:00,
2013-03-30 01:25:00,37.6,25.0,30.21,NNW,327,2.0,4.0,60,0.00,,---,0.00,VWS V14.01,2013-03-30 05:25:00,
2013-03-30 01:30:00,37.6,25.0,30.21,NNW,327,4.0,4.0,60,0.00,,---,0.00,VWS V14.01,2013-03-30 05:30:00,
2013-03-30 01:35:00,37.6,24.6,30.21,NNW,327,3.0,4.0,59,0.00,,---,0.00,VWS V14.01,2013-03-30 05:35:00,
2013-03-30 01:40:00,37.7,25.1,30.21,NNW,327,3.0,3.0,60,0.00,,---,0.00,VWS V14.01,2013-03-30 05:40:00,
2013-03-30 01:45:00,37.7,25.1,30.21,NNW,327,2.0,3.0,60,0.00,,---,0.00,VWS V14.01,2013-03-30 05:45:00,
2013-03-30 01:50:00,37.7,25.1,30.21,NNW,327,2.0,3.0,60,0.00,,---,0.00,VWS V14.01,2013-03-30 05:50:00,
2013-03-30 01:55:00,37.6,25.0,30.21,NNW,327,2.0,3.0,60,0.00,,---,0.00,VWS V14.01,2013-03-30 05:55:00,
2013-03-30 02:00:00,37.6,25.0,30.21,NNW,327,2.0,3.0,60,0.00,,---,0.00,VWS V14.01,2013-03-30 06:00:00,
2013-03-30 02:05:00,37.6,25.0,30.21,NNW,327,1.0,2.0,60,0.00,,---,0.00,VWS V14.01,2013-03-30 06:05:00,
2013-03-30 02:10:00,37.6,25.4,30.21,NNW,327,2.0,3.0,61,0.00,,---,0.00,VWS V14.01,2013-03-30 06:10:00,
2013-03-30 02:15:00,37.6,25.4,30.21,NNW,327,3.0,3.0,61,0.00,,---,0.00,VWS V14.01,2013-03-30 06:15:00,
2013-03-30 02:20:00,37.6,25.0,30.20,NNW,327,3.0,3.0,60,0.00,,---,0.00,VWS V14.01,2013-03-30 06:20:00,
2013-03-30 02:24:00,37.7,25.5,30.20,NNW,327,3.0,4.0,61,0.00,,---,0.00,VWS V14.01,2013-03-30 06:24:00,
2013-03-30 02:25:00,37.6,24.6,30.21,NNW,327,4.0,5.0,59,0.00,,---,0.00,VWS V14.01,2013-03-30 06:25:00,
2013-03-30 02:29:00,37.7,25.5,30.20,NNW,327,3.0,3.0,61,0.00,,---,0.00,VWS V14.01,2013-03-30 06:29:00,
2013-03-30 02:30:00,37.6,25.0,30.21,NNW,327,3.0,4.0,60,0.00,,---,0.00,VWS V14.01,2013-03-30 06:30:00,
2013-03-30 02:34:00,37.9,25.3,30.20,NNW,327,2.0,3.0,60,0.00,,---,0.00,VWS V14.01,2013-03-30 06:34:00,
2013-03-30 02:35:00,37.6,25.0,30.21,NNW,327,3.0,4.0,60,0.00,,---,0.00,VWS V14.01,2013-03-30 06:35:00,
2013-03-30 02:39:00,37.9,25.3,30.20,NNW,327,2.0,2.0,60,0.00,,---,0.00,VWS V14.01,2013-03-30 06:39:00,
2013-03-30 02:40:00,37.7,25.1,30.21,NNW,327,3.0,4.0,60,0.00,,---,0.00,VWS V14.01,2013-03-30 06:40:00,
2013-03-30 02:44:00,37.7,25.1,30.20,NNW,327,0.0,1.0,60,0.00,,---,0.00,VWS V14.01,2013-03-30 06:44:00,
2013-03-30 02:45:00,37.7,25.1,30.21,NNW,327,3.0,3.0,60,0.00,,---,0.00,VWS V14.01,2013-03-30 06:45:00,
2013-03-30 02:49:00,37.6,25.4,30.20,NNW,327,1.0,2.0,61,0.00,,---,0.00,VWS V14.01,2013-03-30 06:49:00,
2013-03-30 02:50:00,37.6,25.0,30.21,NNW,327,2.0,3.0,60,0.00,,---,0.00,VWS V14.01,2013-03-30 06:50:00,
2013-03-30 02:54:00,37.4,25.2,30.20,NNW,327,2.0,2.0,61,0.00,,---,0.00,VWS V14.01,2013-03-30 06:54:00,
2013-03-30 02:55:00,37.6,25.0,30.21,NNW,327,3.0,3.0,60,0.00,,---,0.00,VWS V14.01,2013-03-30 06:55:00,
2013-03-30 02:59:00,37.3,25.1,30.20,NNW,327,2.0,3.0,61,0.00,,---,0.00,VWS V14.01,2013-03-30 06:59:00,
2013-03-30 03:00:00,37.6,25.0,30.21,NNW,327,2.0,3.0,60,0.00,,---,0.00,VWS V14.01,2013-03-30 07:00:00,
2013-03-30 03:04:00,37.3,25.1,30.20,NNW,327,2.0,2.0,61,0.00,,---,0.00,VWS V14.01,2013-03-30 07:04:00,
2013-03-30 03:05:00,37.6,25.4,30.21,NNW,327,2.0,3.0,61,0.00,,---,0.00,VWS V14.01,2013-03-30 07:05:00,
2013-03-30 03:09:00,37.3,25.1,30.20,NNW,327,1.0,2.0,61,0.00,,---,0.00,VWS V14.01,2013-03-30 07:09:00,
2013-03-30 03:10:00,37.6,25.4,30.21,NNW,327,3.0,3.0,61,0.00,,---,0.00,VWS V14.01,2013-03-30 07:10:00,
2013-03-30 03:14:00,37.3,25.1,30.20,NNW,327,1.0,2.0,61,0.00,,---,0.00,VWS V14.01,2013-03-30 07:14:00,
2013-03-30 03:15:00,37.6,25.4,30.20,NNW,327,3.0,4.0,61,0.00,,---,0.00,VWS V14.01,2013-03-30 07:15:00,
2013-03-30 03:19:00,37.3,25.1,30.19,NNW,327,1.0,3.0,61,0.00,,---,0.00,VWS V14.01,2013-03-30 07:19:00,
2013-03-30 03:20:00,37.7,25.5,30.20,NNW,327,2.0,3.0,61,0.00,,---,0.00,VWS V14.01,2013-03-30 07:20:00,
2013-03-30 03:24:00,37.4,25.2,30.19,NNW,327,2.0,2.0,61,0.00,,---,0.00,VWS V14.01,2013-03-30 07:24:00,
2013-03-30 03:25:00,37.7,25.5,30.20,NNW,327,2.0,4.0,61,0.00,,---,0.00,VWS V14.01,2013-03-30 07:25:00,
2013-03-30 03:29:00,37.4,25.2,30.19,NNW,327,1.0,2.0,61,0.00,,---,0.00,VWS V14.01,2013-03-30 07:29:00,
2013-03-30 03:30:00,37.9,25.3,30.20,NNW,327,2.0,4.0,60,0.00,,---,0.00,VWS V14.01,2013-03-30 07:30:00,
2013-03-30 03:34:00,37.4,25.2,30.19,NNW,327,1.0,2.0,61,0.00,,---,0.00,VWS V14.01,2013-03-30 07:34:00,
2013-03-30 03:35:00,37.9,25.3,30.20,NNW,327,2.0,3.0,60,0.00,,---,0.00,VWS V14.01,2013-03-30 07:35:00,
2013-03-30 03:39:00,37.4,25.2,30.19,NNW,327,2.0,2.0,61,0.00,,---,0.00,VWS V14.01,2013-03-30 07:39:00,
2013-03-30 03:40:00,37.7,25.1,30.20,NNW,327,1.0,2.0,60,0.00,,---,0.00,VWS V14.01,2013-03-30 07:40:00,
2013-03-30 03:44:00,37.4,24.8,30.19,NNW,327,2.0,2.0,60,0.00,,---,0.00,VWS V14.01,2013-03-30 07:44:00,
2013-03-30 03:45:00,37.6,25.4,30.20,NNW,327,0.0,2.0,61,0.00,,---,0.00,VWS V14.01,2013-03-30 07:45:00,
2013-03-30 03:49:00,37.6,25.4,30.19,NNW,327,1.0,2.0,61,0.00,,---,0.00,VWS V14.01,2013-03-30 07:49:00,
2013-03-30 03:50:00,37.4,25.2,30.20,NNW,327,2.0,2.0,61,0.00,,---,0.00,VWS V14.01,2013-03-30 07:50:00,
2013-03-30 03:54:00,37.6,25.4,30.19,NNW,327,1.0,1.0,61,0.00,,---,0.00,VWS V14.01,2013-03-30 07:54:00,
2013-03-30 03:55:00,37.3,25.1,30.20,NNW,327,3.0,3.0,61,0.00,,---,0.00,VWS V14.01,2013-03-30 07:55:00,
2013-03-30 03:59:00,37.7,25.1,30.19,NNW,327,0.0,1.0,60,0.00,,---,0.00,VWS V14.01,2013-03-30 07:59:00,
2013-03-30 04:00:00,37.3,25.1,30.20,NNW,327,2.0,3.0,61,0.00,,---,0.00,VWS V14.01,2013-03-30 08:00:00,
2013-03-30 04:04:00,37.9,25.7,30.19,NNW,327,1.0,2.0,61,0.00,,---,0.00,VWS V14.01,2013-03-30 08:04:00,
2013-03-30 04:05:00,37.3,25.1,30.20,NNW,327,2.0,3.0,61,0.00,,---,0.00,VWS V14.01,2013-03-30 08:05:00,
2013-03-30 04:09:00,37.9,25.7,30.19,NNW,327,2.0,2.0,61,0.00,,---,0.00,VWS V14.01,2013-03-30 08:09:00,
2013-03-30 04:10:00,37.3,25.1,30.20,NNW,327,2.0,3.0,61,0.00,,---,0.00,VWS V14.01,2013-03-30 08:10:00,
2013-03-30 04:14:00,37.9,25.7,30.19,NNW,327,2.0,3.0,61,0.00,,---,0.00,VWS V14.01,2013-03-30 08:14:00,
2013-03-30 04:15:00,37.3,25.1,30.19,NNW,327,0.0,3.0,61,0.00,,---,0.00,VWS V14.01,2013-03-30 08:15:00,
2013-03-30 04:19:00,37.9,25.3,30.19,NNW,327,2.0,2.0,60,0.00,,---,0.00,VWS V14.01,2013-03-30 08:19:00,
2013-03-30 04:20:00,37.4,25.2,30.19,NNW,327,1.0,3.0,61,0.00,,---,0.00,VWS V14.01,2013-03-30 08:20:00,
2013-03-30 04:24:00,38.0,25.8,30.19,NNW,331,2.0,3.0,61,0.00,,---,0.00,VWS V14.01,2013-03-30 08:24:00,
2013-03-30 04:25:00,37.4,25.2,30.19,NNW,327,2.0,2.0,61,0.00,,---,0.00,VWS V14.01,2013-03-30 08:25:00,
2013-03-30 04:29:00,38.0,25.8,30.19,NNW,331,2.0,3.0,61,0.00,,---,0.00,VWS V14.01,2013-03-30 08:29:00,
2013-03-30 04:30:00,37.4,25.2,30.19,NNW,327,1.0,2.0,61,0.00,,---,0.00,VWS V14.01,2013-03-30 08:30:00,
2013-03-30 04:34:00,38.2,26.0,30.19,NNW,331,2.0,2.0,61,0.00,,---,0.00,VWS V14.01,2013-03-30 08:34:00,
2013-03-30 04:35:00,37.4,25.2,30.19,NNW,327,2.0,3.0,61,0.00,,---,0.00,VWS V14.01,2013-03-30 08:35:00,
2013-03-30 04:39:00,38.4,26.1,30.19,NNW,331,1.0,2.0,61,0.00,,---,0.00,VWS V14.01,2013-03-30 08:39:00,
2013-03-30 04:40:00,37.4,25.2,30.19,NNW,327,1.0,3.0,61,0.00,,---,0.00,VWS V14.01,2013-03-30 08:40:00,
2013-03-30 04:44:00,38.4,25.7,30.19,NNW,331,3.0,3.0,60,0.00,,---,0.00,VWS V14.01,2013-03-30 08:44:00,
2013-03-30 04:45:00,37.6,25.4,30.19,NNW,327,1.0,2.0,61,0.00,,---,0.00,VWS V14.01,2013-03-30 08:45:00,
2013-03-30 04:49:00,38.6,25.9,30.19,NNW,331,3.0,3.0,60,0.00,,---,0.00,VWS V14.01,2013-03-30 08:49:00,
2013-03-30 04:50:00,37.6,25.4,30.19,NNW,327,0.0,2.0,61,0.00,,---,0.00,VWS V14.01,2013-03-30 08:50:00,
2013-03-30 04:54:00,38.7,26.0,30.19,NW,315,2.0,3.0,60,0.00,,---,0.00,VWS V14.01,2013-03-30 08:54:00,
2013-03-30 04:55:00,37.7,25.1,30.19,NNW,327,1.0,2.0,60,0.00,,---,0.00,VWS V14.01,2013-03-30 08:55:00,
2013-03-30 04:59:00,38.7,26.0,30.19,NW,320,1.0,2.0,60,0.00,,---,0.00,VWS V14.01,2013-03-30 08:59:00,
2013-03-30 05:00:00,37.9,25.7,30.19,NNW,327,1.0,1.0,61,0.00,,---,0.00,VWS V14.01,2013-03-30 09:00:00,
2013-03-30 05:04:00,38.7,26.0,30.19,NW,320,1.0,2.0,60,0.00,,---,0.00,VWS V14.01,2013-03-30 09:04:00,
2013-03-30 05:05:00,37.9,25.7,30.19,NNW,327,0.0,2.0,61,0.00,,---,0.00,VWS V14.01,2013-03-30 09:05:00,
2013-03-30 05:09:00,38.6,25.9,30.19,NW,320,1.0,1.0,60,0.00,,---,0.00,VWS V14.01,2013-03-30 09:09:00,
2013-03-30 05:10:00,37.9,25.7,30.19,NNW,327,2.0,2.0,61,0.00,,---,0.00,VWS V14.01,2013-03-30 09:10:00,
2013-03-30 05:14:00,38.7,26.0,30.19,NW,320,2.0,2.0,60,0.00,,---,0.00,VWS V14.01,2013-03-30 09:14:00,
2013-03-30 05:15:00,37.9,25.7,30.19,NNW,327,1.0,3.0,61,0.00,,---,0.00,VWS V14.01,2013-03-30 09:15:00,
2013-03-30 05:19:00,38.6,25.9,30.19,NW,320,2.0,3.0,60,0.00,,---,0.00,VWS V14.01,2013-03-30 09:19:00,
2013-03-30 05:20:00,38.0,25.8,30.19,NNW,331,3.0,5.0,61,0.00,,---,0.00,VWS V14.01,2013-03-30 09:20:00,
2013-03-30 05:24:00,38.6,25.9,30.19,NW,320,1.0,2.0,60,0.00,,---,0.00,VWS V14.01,2013-03-30 09:24:00,
2013-03-30 05:25:00,38.0,25.8,30.19,NNW,331,1.0,3.0,61,0.00,,---,0.00,VWS V14.01,2013-03-30 09:25:00,
2013-03-30 05:29:00,38.6,25.9,30.19,NW,320,1.0,2.0,60,0.00,,---,0.00,VWS V14.01,2013-03-30 09:29:00,
2013-03-30 05:30:00,38.2,26.0,30.19,NNW,331,2.0,3.0,61,0.00,,---,0.00,VWS V14.01,2013-03-30 09:30:00,
2013-03-30 05:34:00,38.6,25.9,30.19,NW,320,2.0,3.0,60,0.00,,---,0.00,VWS V14.01,2013-03-30 09:34:00,
2013-03-30 05:35:00,38.3,26.0,30.19,NNW,331,2.0,3.0,61,0.00,,---,0.00,VWS V14.01,2013-03-30 09:35:00,
2013-03-30 05:39:00,38.4,26.1,30.19,NW,324,2.0,3.0,61,0.00,,---,0.00,VWS V14.01,2013-03-30 09:39:00,
2013-03-30 05:40:00,38.4,25.7,30.19,NNW,331,2.0,3.0,60,0.00,,---,0.00,VWS V14.01,2013-03-30 09:40:00,
2013-03-30 05:44:00,38.4,26.1,30.19,NW,324,0.0,3.0,61,0.00,,---,0.00,VWS V14.01,2013-03-30 09:44:00,
2013-03-30 05:45:00,38.6,25.9,30.19,NNW,331,1.0,3.0,60,0.00,,---,0.00,VWS V14.01,2013-03-30 09:45:00,
2013-03-30 05:49:00,38.3,26.0,30.19,NW,323,0.0,3.0,61,0.00,,---,0.00,VWS V14.01,2013-03-30 09:49:00,
2013-03-30 05:50:00,38.7,26.0,30.19,NW,311,2.0,5.0,60,0.00,,---,0.00,VWS V14.01,2013-03-30 09:50:00,
2013-03-30 05:54:00,38.0,26.1,30.19,NW,323,1.0,2.0,62,0.00,,---,0.00,VWS V14.01,2013-03-30 09:54:00,
2013-03-30 05:55:00,38.7,26.0,30.19,NW,320,2.0,5.0,60,0.00,,---,0.00,VWS V14.01,2013-03-30 09:55:00,
2013-03-30 05:59:00,37.7,25.9,30.19,NW,324,2.0,3.0,62,0.00,,---,0.00,VWS V14.01,2013-03-30 09:59:00,
2013-03-30 06:00:00,38.7,26.0,30.19,NW,320,1.0,3.0,60,0.00,,---,0.00,VWS V14.01,2013-03-30 10:00:00,
2013-03-30 06:04:00,37.4,26.0,30.20,NW,323,1.0,2.0,63,0.00,,---,0.00,VWS V14.01,2013-03-30 10:04:00,
2013-03-30 06:05:00,38.6,25.9,30.19,NW,320,0.0,3.0,60,0.00,,---,0.00,VWS V14.01,2013-03-30 10:05:00,
2013-03-30 06:09:00,37.3,25.9,30.20,NW,324,1.0,1.0,63,0.00,,---,0.00,VWS V14.01,2013-03-30 10:09:00,
2013-03-30 06:10:00,38.7,26.0,30.19,NW,320,2.0,3.0,60,0.00,,---,0.00,VWS V14.01,2013-03-30 10:10:00,
2013-03-30 06:14:00,37.1,25.7,30.20,NW,323,0.0,2.0,63,0.00,,---,0.00,VWS V14.01,2013-03-30 10:14:00,
2013-03-30 06:15:00,38.6,25.9,30.19,NW,320,2.0,2.0,60,0.00,,---,0.00,VWS V14.01,2013-03-30 10:15:00,
2013-03-30 06:19:00,37.3,25.9,30.20,NNW,328,0.0,2.0,63,0.00,,---,0.00,VWS V14.01,2013-03-30 10:19:00,
2013-03-30 06:20:00,38.6,25.9,30.19,NW,320,1.0,3.0,60,0.00,,---,0.00,VWS V14.01,2013-03-30 10:20:00,
2013-03-30 06:24:00,37.3,25.9,30.20,NNW,328,0.0,1.0,63,0.00,,---,0.00,VWS V14.01,2013-03-30 10:24:00,
2013-03-30 06:25:00,38.6,25.9,30.19,NW,320,0.0,3.0,60,0.00,,---,0.00,VWS V14.01,2013-03-30 10:25:00,
2013-03-30 06:29:00,37.1,26.4,30.20,NNW,328,0.0,0.0,65,0.00,,---,0.00,VWS V14.01,2013-03-30 10:29:00,
2013-03-30 06:30:00,38.6,25.9,30.19,NW,320,2.0,3.0,60,0.00,,---,0.00,VWS V14.01,2013-03-30 10:30:00,
2013-03-30 06:34:00,36.7,26.1,30.20,NNW,328,0.0,0.0,65,0.00,,---,0.00,VWS V14.01,2013-03-30 10:34:00,
2013-03-30 06:35:00,38.4,26.1,30.19,NW,324,2.0,3.0,61,0.00,,---,0.00,VWS V14.01,2013-03-30 10:35:00,
2013-03-30 06:39:00,36.3,26.0,30.20,NNW,328,0.0,0.0,66,0.00,,---,0.00,VWS V14.01,2013-03-30 10:39:00,
2013-03-30 06:40:00,38.4,26.1,30.19,NW,324,1.0,3.0,61,0.00,,---,0.00,VWS V14.01,2013-03-30 10:40:00,
2013-03-30 06:44:00,36.0,25.8,30.20,NNW,328,0.0,0.0,66,0.00,,---,0.00,VWS V14.01,2013-03-30 10:44:00,
2013-03-30 06:45:00,38.3,26.0,30.19,NW,323,0.0,3.0,61,0.00,,---,0.00,VWS V14.01,2013-03-30 10:45:00,
2013-03-30 06:49:00,35.7,25.8,30.21,NNW,328,0.0,0.0,67,0.00,,---,0.00,VWS V14.01,2013-03-30 10:49:00,
2013-03-30 06:50:00,38.0,26.1,30.19,NW,323,1.0,2.0,62,0.00,,---,0.00,VWS V14.01,2013-03-30 10:50:00,
2013-03-30 06:54:00,35.3,25.8,30.21,NNW,328,0.0,2.0,68,0.00,,---,0.00,VWS V14.01,2013-03-30 10:54:00,
2013-03-30 06:55:00,37.7,25.9,30.19,NW,324,1.0,3.0,62,0.00,,---,0.00,VWS V14.01,2013-03-30 10:55:00,
2013-03-30 06:59:00,35.0,25.9,30.21,NNW,328,0.0,1.0,69,0.00,,---,0.00,VWS V14.01,2013-03-30 10:59:00,
2013-03-30 07:00:00,37.4,26.0,30.20,NW,323,1.0,2.0,63,0.00,,---,0.00,VWS V14.01,2013-03-30 11:00:00,
2013-03-30 07:04:00,34.9,26.1,30.21,NNW,328,0.0,2.0,70,0.00,,---,0.00,VWS V14.01,2013-03-30 11:04:00,
2013-03-30 07:05:00,37.3,25.9,30.20,NW,323,1.0,2.0,63,0.00,,---,0.00,VWS V14.01,2013-03-30 11:05:00,
2013-03-30 07:09:00,34.6,26.2,30.21,NNW,328,0.0,2.0,71,0.00,,---,0.00,VWS V14.01,2013-03-30 11:09:00,
2013-03-30 07:10:00,37.1,25.7,30.20,NW,323,0.0,2.0,63,0.00,,---,0.00,VWS V14.01,2013-03-30 11:10:00,
2013-03-30 07:14:00,34.4,26.0,30.21,NNW,328,0.0,1.0,71,0.00,,---,0.00,VWS V14.01,2013-03-30 11:14:00,
2013-03-30 07:15:00,37.3,25.9,30.20,NNW,328,0.0,2.0,63,0.00,,---,0.00,VWS V14.01,2013-03-30 11:15:00,
2013-03-30 07:19:00,34.3,25.9,30.22,NNW,328,0.0,0.0,71,0.00,,---,0.00,VWS V14.01,2013-03-30 11:19:00,
2013-03-30 07:20:00,37.3,25.9,30.20,NNW,328,0.0,1.0,63,0.00,,---,0.00,VWS V14.01,2013-03-30 11:20:00,
2013-03-30 07:24:00,34.1,26.0,30.22,NNW,328,0.0,0.0,72,0.00,,---,0.00,VWS V14.01,2013-03-30 11:24:00,
2013-03-30 07:25:00,37.1,26.4,30.20,NNW,328,0.0,0.0,65,0.00,,---,0.00,VWS V14.01,2013-03-30 11:25:00,
2013-03-30 07:29:00,34.0,25.9,30.22,NNW,328,0.0,0.0,72,0.00,,---,0.00,VWS V14.01,2013-03-30 11:29:00,
2013-03-30 07:30:00,36.7,26.1,30.20,NNW,328,0.0,0.0,65,0.00,,---,0.00,VWS V14.01,2013-03-30 11:30:00,
2013-03-30 07:34:00,34.0,26.3,30.23,NNW,328,0.0,1.0,73,0.00,,---,0.00,VWS V14.01,2013-03-30 11:34:00,
2013-03-30 07:35:00,36.3,26.0,30.20,NNW,328,0.0,0.0,66,0.00,,---,0.00,VWS V14.01,2013-03-30 11:35:00,
2013-03-30 07:39:00,34.0,26.3,30.23,NNW,328,0.0,0.0,73,0.00,,---,0.00,VWS V14.01,2013-03-30 11:39:00,
2013-03-30 07:40:00,36.0,25.8,30.20,NNW,328,0.0,0.0,66,0.00,,---,0.00,VWS V14.01,2013-03-30 11:40:00,
2013-03-30 07:44:00,34.0,26.3,30.23,NNW,328,0.0,0.0,73,0.00,,---,0.00,VWS V14.01,2013-03-30 11:44:00,
2013-03-30 07:45:00,35.7,25.8,30.21,NNW,328,0.0,0.0,67,0.00,,---,0.00,VWS V14.01,2013-03-30 11:45:00,
2013-03-30 07:49:00,34.1,26.4,30.23,NW,322,0.0,1.0,73,0.00,,---,0.00,VWS V14.01,2013-03-30 11:49:00,
2013-03-30 07:50:00,35.3,25.8,30.21,NNW,328,0.0,2.0,68,0.00,,---,0.00,VWS V14.01,2013-03-30 11:50:00,
2013-03-30 07:54:00,34.3,26.2,30.23,NW,322,0.0,0.0,72,0.00,,---,0.00,VWS V14.01,2013-03-30 11:54:00,
2013-03-30 07:55:00,35.0,25.9,30.21,NNW,328,0.0,1.0,69,0.00,,---,0.00,VWS V14.01,2013-03-30 11:55:00,
2013-03-30 07:59:00,34.6,26.5,30.23,NW,322,0.0,0.0,72,0.00,,---,0.00,VWS V14.01,2013-03-30 11:59:00,
2013-03-30 08:00:00,34.9,26.1,30.21,NNW,328,0.0,2.0,70,0.00,,---,0.00,VWS V14.01,2013-03-30 12:00:00,
2013-03-30 08:04:00,34.9,27.1,30.23,NW,322,0.0,0.0,73,0.00,,---,0.00,VWS V14.01,2013-03-30 12:04:00,
2013-03-30 08:05:00,34.6,26.2,30.21,NNW,328,0.0,2.0,71,0.00,,---,0.00,VWS V14.01,2013-03-30 12:05:00,
2013-03-30 08:09:00,35.1,27.3,30.23,ENE,71,0.0,0.0,73,0.00,,---,0.00,VWS V14.01,2013-03-30 12:09:00,
2013-03-30 08:10:00,34.4,26.0,30.21,NNW,328,0.0,1.0,71,0.00,,---,0.00,VWS V14.01,2013-03-30 12:10:00,
2013-03-30 08:14:00,35.7,28.2,30.23,ENE,71,0.0,0.0,74,0.00,,---,0.00,VWS V14.01,2013-03-30 12:14:00,
2013-03-30 08:15:00,34.3,25.9,30.22,NNW,328,0.0,0.0,71,0.00,,---,0.00,VWS V14.01,2013-03-30 12:15:00,
2013-03-30 08:19:00,36.4,28.9,30.23,ENE,71,0.0,0.0,74,0.00,,---,0.00,VWS V14.01,2013-03-30 12:19:00,
2013-03-30 08:20:00,34.1,26.0,30.22,NNW,328,0.0,0.0,72,0.00,,---,0.00,VWS V14.01,2013-03-30 12:20:00,
2013-03-30 08:24:00,37.1,29.9,30.23,ENE,71,0.0,0.0,75,0.00,,---,0.00,VWS V14.01,2013-03-30 12:24:00,
2013-03-30 08:25:00,34.0,25.9,30.22,NNW,328,0.0,0.0,72,0.00,,---,0.00,VWS V14.01,2013-03-30 12:25:00,
2013-03-30 08:30:00,34.0,26.3,30.23,NNW,328,0.0,1.0,73,0.00,,---,0.00,VWS V14.01,2013-03-30 12:30:00,
2013-03-30 08:35:00,34.0,26.3,30.23,NNW,328,0.0,0.0,73,0.00,,---,0.00,VWS V14.01,2013-03-30 12:35:00,
2013-03-30 08:40:00,34.0,26.3,30.23,NNW,328,0.0,0.0,73,0.00,,---,0.00,VWS V14.01,2013-03-30 12:40:00,
2013-03-30 08:45:00,34.1,26.4,30.23,NW,322,0.0,1.0,73,0.00,,---,0.00,VWS V14.01,2013-03-30 12:45:00,
2013-03-30 08:50:00,34.3,26.2,30.23,NW,322,0.0,0.0,72,0.00,,---,0.00,VWS V14.01,2013-03-30 12:50:00,
2013-03-30 08:55:00,34.6,26.5,30.23,NW,322,0.0,0.0,72,0.00,,---,0.00,VWS V14.01,2013-03-30 12:55:00,
2013-03-30 09:00:00,34.9,27.1,30.23,NW,322,0.0,0.0,73,0.00,,---,0.00,VWS V14.01,2013-03-30 13:00:00,
2013-03-30 09:05:00,35.3,27.5,30.23,ENE,71,0.0,0.0,73,0.00,,---,0.00,VWS V14.01,2013-03-30 13:05:00,
2013-03-30 09:10:00,35.7,28.2,30.23,ENE,71,0.0,0.0,74,0.00,,---,0.00,VWS V14.01,2013-03-30 13:10:00,
2013-03-30 09:15:00,36.4,28.9,30.23,ENE,71,0.0,0.0,74,0.00,,---,0.00,VWS V14.01,2013-03-30 13:15:00,
2013-03-30 09:20:00,37.1,29.9,30.23,ENE,71,0.0,0.0,75,0.00,,---,0.00,VWS V14.01,2013-03-30 13:20:00,
2013-03-30 09:25:00,37.9,30.0,30.23,ENE,68,0.0,2.0,73,0.00,,---,0.00,VWS V14.01,2013-03-30 13:25:00,
2013-03-30 09:30:00,38.4,29.5,30.23,ENE,68,0.0,0.0,70,0.00,,---,0.00,VWS V14.01,2013-03-30 13:30:00,
2013-03-30 09:35:00,39.3,30.4,30.23,ENE,68,0.0,0.0,70,0.00,,---,0.00,VWS V14.01,2013-03-30 13:35:00,
2013-03-30 09:40:00,39.9,29.9,30.23,ENE,68,0.0,0.0,67,0.00,,---,0.00,VWS V14.01,2013-03-30 13:40:00,
2013-03-30 09:45:00,40.4,29.2,30.23,East,90,0.0,1.0,64,0.00,,---,0.00,VWS V14.01,2013-03-30 13:45:00,
2013-03-30 09:50:00,41.3,29.7,30.23,SSE,158,0.0,1.0,63,0.00,,---,0.00,VWS V14.01,2013-03-30 13:50:00,
2013-03-30 09:55:00,42.3,30.2,30.23,WSW,248,0.0,1.0,62,0.00,,---,0.00,VWS V14.01,2013-03-30 13:55:00,
2013-03-30 10:00:00,42.9,30.0,30.23,WSW,248,0.0,1.0,60,0.00,,---,0.00,VWS V14.01,2013-03-30 14:00:00,
2013-03-30 10:05:00,43.6,29.8,30.23,WSW,248,0.0,2.0,58,0.00,,---,0.00,VWS V14.01,2013-03-30 14:05:00,
2013-03-30 10:10:00,44.3,30.0,30.23,WSW,248,1.0,2.0,57,0.00,,---,0.00,VWS V14.01,2013-03-30 14:10:00,
2013-03-30 10:15:00,44.9,30.6,30.23,SW,225,1.0,2.0,57,0.00,,---,0.00,VWS V14.01,2013-03-30 14:15:00,
2013-03-30 10:20:00,45.6,30.4,30.23,South,180,1.0,3.0,55,0.00,,---,0.00,VWS V14.01,2013-03-30 14:20:00,
2013-03-30 10:25:00,46.2,31.4,30.23,SSE,158,1.0,3.0,56,0.00,,---,0.00,VWS V14.01,2013-03-30 14:25:00,
2013-03-30 10:30:00,46.8,31.5,30.23,SSE,158,1.0,2.0,55,0.00,,---,0.00,VWS V14.01,2013-03-30 14:30:00,
2013-03-30 10:35:00,47.3,31.0,30.23,SSE,158,1.0,3.0,53,0.00,,---,0.00,VWS V14.01,2013-03-30 14:35:00,
2013-03-30 10:40:00,48.0,31.7,30.23,SSE,158,2.0,4.0,53,0.00,,---,0.00,VWS V14.01,2013-03-30 14:40:00,
2013-03-30 10:45:00,48.6,32.7,30.22,ESE,112,3.0,7.0,54,0.00,,---,0.00,VWS V14.01,2013-03-30 14:45:00,
2013-03-30 10:50:00,49.2,32.8,30.22,SE,135,4.0,6.0,53,0.00,,---,0.00,VWS V14.01,2013-03-30 14:50:00,
2013-03-30 10:55:00,49.6,31.7,30.22,ESE,112,5.0,9.0,50,0.00,,---,0.00,VWS V14.01,2013-03-30 14:55:00,
2013-03-30 11:00:00,50.1,32.2,30.22,SE,135,5.0,9.0,50,0.00,,---,0.00,VWS V14.01,2013-03-30 15:00:00,
2013-03-30 11:05:00,50.4,31.5,30.22,SE,135,3.0,6.0,48,0.00,,---,0.00,VWS V14.01,2013-03-30 15:05:00,
2013-03-30 11:10:00,50.5,30.5,30.22,SE,135,5.0,9.0,46,0.00,,---,0.00,VWS V14.01,2013-03-30 15:10:00,
2013-03-30 11:15:00,50.7,31.7,30.22,SSE,158,5.0,7.0,48,0.00,,---,0.00,VWS V14.01,2013-03-30 15:15:00,
2013-03-30 11:20:00,51.0,32.0,30.22,SSE,158,6.0,10.0,48,0.00,,---,0.00,VWS V14.01,2013-03-30 15:20:00,
2013-03-30 11:25:00,51.4,31.3,30.22,SSE,158,4.0,11.0,46,0.00,,---,0.00,VWS V14.01,2013-03-30 15:25:00,
2013-03-30 11:30:00,51.9,32.8,30.22,SSE,158,4.0,7.0,48,0.00,,---,0.00,VWS V14.01,2013-03-30 15:30:00,
2013-03-30 11:35:00,52.0,32.9,30.22,SSE,158,5.0,10.0,48,0.00,,---,0.00,VWS V14.01,2013-03-30 15:35:00,
2013-03-30 11:40:00,52.3,29.9,30.22,SSE,158,6.0,10.0,42,0.00,,---,0.00,VWS V14.01,2013-03-30 15:40:00,
2013-03-30 11:45:00,52.4,29.4,30.22,South,180,3.0,9.0,41,0.00,,---,0.00,VWS V14.01,2013-03-30 15:45:00,
2013-03-30 11:50:00,52.7,28.5,30.22,South,180,4.0,13.0,39,0.00,,---,0.00,VWS V14.01,2013-03-30 15:50:00,
2013-03-30 11:55:00,52.7,27.2,30.22,West,270,7.0,15.0,37,0.00,,---,0.00,VWS V14.01,2013-03-30 15:55:00,
2013-03-30 12:00:00,52.6,27.1,30.22,WSW,248,5.0,11.0,37,0.00,,---,0.00,VWS V14.01,2013-03-30 16:00:00,
2013-03-30 12:05:00,52.6,26.4,30.22,NNW,338,6.0,13.0,36,0.00,,---,0.00,VWS V14.01,2013-03-30 16:05:00,
2013-03-30 12:10:00,52.7,27.2,30.22,NW,315,3.0,11.0,37,0.00,,---,0.00,VWS V14.01,2013-03-30 16:10:00,
2013-03-30 12:15:00,53.0,28.1,30.21,West,270,5.0,16.0,38,0.00,,---,0.00,VWS V14.01,2013-03-30 16:15:00,
2013-03-30 12:20:00,53.0,27.4,30.21,West,270,4.0,11.0,37,0.00,,---,0.00,VWS V14.01,2013-03-30 16:20:00,
2013-03-30 12:25:00,53.2,26.3,30.21,NW,315,6.0,11.0,35,0.00,,---,0.00,VWS V14.01,2013-03-30 16:25:00,
2013-03-30 12:30:00,53.5,27.2,30.21,West,270,5.0,12.0,36,0.00,,---,0.00,VWS V14.01,2013-03-30 16:30:00,
2013-03-30 12:35:00,53.6,27.3,30.21,NNW,338,7.0,13.0,36,0.00,,---,0.00,VWS V14.01,2013-03-30 16:35:00,
2013-03-30 12:40:00,53.5,27.2,30.21,WNW,292,6.0,14.0,36,0.00,,---,0.00,VWS V14.01,2013-03-30 16:40:00,
2013-03-30 12:45:00,53.6,25.9,30.20,NW,315,6.0,17.0,34,0.00,,---,0.00,VWS V14.01,2013-03-30 16:45:00,
2013-03-30 12:50:00,53.2,27.6,30.20,North,0,9.0,15.0,37,0.00,,---,0.00,VWS V14.01,2013-03-30 16:50:00,
2013-03-30 12:55:00,53.3,26.4,30.20,NW,315,9.0,20.0,35,0.00,,---,0.00,VWS V14.01,2013-03-30 16:55:00,
2013-03-30 13:00:00,53.5,25.8,30.19,NNW,338,10.0,20.0,34,0.00,,---,0.00,VWS V14.01,2013-03-30 17:00:00,
2013-03-30 13:05:00,53.6,26.6,30.19,WNW,292,5.0,17.0,35,0.00,,---,0.00,VWS V14.01,2013-03-30 17:05:00,
2013-03-30 13:10:00,53.9,25.5,30.19,WSW,248,10.0,20.0,33,0.00,,---,0.00,VWS V14.01,2013-03-30 17:10:00,
2013-03-30 13:15:00,54.2,26.5,30.19,WSW,248,7.0,16.0,34,0.00,,---,0.00,VWS V14.01,2013-03-30 17:15:00,
2013-03-30 13:20:00,54.5,26.0,30.19,West,270,8.0,17.0,33,0.00,,---,0.00,VWS V14.01,2013-03-30 17:20:00,
2013-03-30 13:25:00,54.7,26.9,30.19,WSW,248,10.0,20.0,34,0.00,,---,0.00,VWS V14.01,2013-03-30 17:25:00,
2013-03-30 13:30:00,55.0,27.9,30.19,West,270,10.0,22.0,35,0.00,,---,0.00,VWS V14.01,2013-03-30 17:30:00,
2013-03-30 13:35:00,54.8,26.3,30.19,West,270,9.0,15.0,33,0.00,,---,0.00,VWS V14.01,2013-03-30 17:35:00,
2013-03-30 13:40:00,55.0,28.6,30.19,SW,225,7.0,12.0,36,0.00,,---,0.00,VWS V14.01,2013-03-30 17:40:00,
2013-03-30 13:45:00,55.6,28.4,30.17,WSW,248,6.0,13.0,35,0.00,,---,0.00,VWS V14.01,2013-03-30 17:45:00,
2013-03-30 13:50:00,55.8,28.6,30.17,North,0,8.0,16.0,35,0.00,,---,0.00,VWS V14.01,2013-03-30 17:50:00,
2013-03-30 13:55:00,56.1,30.2,30.17,NNW,338,6.0,14.0,37,0.00,,---,0.00,VWS V14.01,2013-03-30 17:55:00,
2013-03-30 14:00:00,56.0,25.8,30.17,North,0,7.0,13.0,31,0.00,,---,0.00,VWS V14.01,2013-03-30 18:00:00,
2013-03-30 14:05:00,56.0,26.6,30.17,NNE,22,7.0,18.0,32,0.00,,---,0.00,VWS V14.01,2013-03-30 18:05:00,
2013-03-30 14:10:00,56.1,28.8,30.17,WSW,248,8.0,16.0,35,0.00,,---,0.00,VWS V14.01,2013-03-30 18:10:00,
2013-03-30 14:15:00,56.4,26.9,30.16,WSW,248,8.0,18.0,32,0.00,,---,0.00,VWS V14.01,2013-03-30 18:15:00,
2013-03-30 14:20:00,56.3,26.1,30.16,WSW,248,9.0,17.0,31,0.00,,---,0.00,VWS V14.01,2013-03-30 18:20:00,
2013-03-30 14:25:00,56.0,26.6,30.16,NW,315,7.0,14.0,32,0.00,,---,0.00,VWS V14.01,2013-03-30 18:25:00,
2013-03-30 14:30:00,56.0,28.0,30.16,WSW,248,6.0,12.0,34,0.00,,---,0.00,VWS V14.01,2013-03-30 18:30:00,
2013-03-30 14:35:00,56.7,26.4,30.16,SSW,202,4.0,11.0,31,0.00,,---,0.00,VWS V14.01,2013-03-30 18:35:00,
2013-03-30 14:40:00,57.1,26.8,30.16,WNW,292,3.0,6.0,31,0.00,,---,0.00,VWS V14.01,2013-03-30 18:40:00,
2013-03-30 14:45:00,56.9,28.1,30.14,NNW,338,4.0,11.0,33,0.00,,---,0.00,VWS V14.01,2013-03-30 18:45:00,
2013-03-30 14:50:00,56.6,26.3,30.14,NW,315,3.0,9.0,31,0.00,,---,0.00,VWS V14.01,2013-03-30 18:50:00,
2013-03-30 14:55:00,56.9,29.5,30.14,North,0,3.0,7.0,35,0.00,,---,0.00,VWS V14.01,2013-03-30 18:55:00,
2013-03-30 15:00:00,56.4,28.4,30.13,NE,45,9.0,15.0,34,0.00,,---,0.00,VWS V14.01,2013-03-30 19:00:00,
2013-03-30 15:05:00,56.0,27.3,30.13,NE,45,8.0,15.0,33,0.00,,---,0.00,VWS V14.01,2013-03-30 19:05:00,
2013-03-30 15:10:00,56.3,28.3,30.13,East,90,5.0,10.0,34,0.00,,---,0.00,VWS V14.01,2013-03-30 19:10:00,
2013-03-30 15:15:00,56.1,26.7,30.13,ENE,68,6.0,10.0,32,0.00,,---,0.00,VWS V14.01,2013-03-30 19:15:00,
2013-03-30 15:20:00,56.0,28.0,30.13,ESE,112,5.0,9.0,34,0.00,,---,0.00,VWS V14.01,2013-03-30 19:20:00,
2013-03-30 15:25:00,56.7,29.4,30.13,SE,135,7.0,11.0,35,0.00,,---,0.00,VWS V14.01,2013-03-30 19:25:00,
2013-03-30 15:30:00,56.9,26.6,30.13,SW,225,9.0,15.0,31,0.00,,---,0.00,VWS V14.01,2013-03-30 19:30:00,
2013-03-30 15:35:00,56.4,26.9,30.13,SW,225,5.0,11.0,32,0.00,,---,0.00,VWS V14.01,2013-03-30 19:35:00,
2013-03-30 15:40:00,56.9,28.8,30.13,South,180,5.0,8.0,34,0.00,,---,0.00,VWS V14.01,2013-03-30 19:40:00,
2013-03-30 15:45:00,57.4,27.0,30.14,South,180,3.0,7.0,31,0.00,,---,0.00,VWS V14.01,2013-03-30 19:45:00,
2013-03-30 15:50:00,57.8,28.2,30.14,SW,225,4.0,7.0,32,0.00,,---,0.00,VWS V14.01,2013-03-30 19:50:00,
2013-03-30 15:55:00,58.1,27.6,30.14,SW,225,4.0,7.0,31,0.00,,---,0.00,VWS V14.01,2013-03-30 19:55:00,
2013-03-30 16:00:00,58.7,28.9,30.13,SSW,202,3.0,7.0,32,0.00,,---,0.00,VWS V14.01,2013-03-30 20:00:00,
2013-03-30 16:05:00,58.9,25.9,30.13,NW,315,4.0,12.0,28,0.00,,---,0.00,VWS V14.01,2013-03-30 20:05:00,
2013-03-30 16:10:00,59.2,27.8,30.13,SW,225,6.0,13.0,30,0.00,,---,0.00,VWS V14.01,2013-03-30 20:10:00,
2013-03-30 16:15:00,59.2,27.0,30.11,SSW,202,10.0,15.0,29,0.00,,---,0.00,VWS V14.01,2013-03-30 20:15:00,
2013-03-30 16:20:00,59.3,27.9,30.11,SSW,202,4.0,11.0,30,0.00,,---,0.00,VWS V14.01,2013-03-30 20:20:00,
2013-03-30 16:25:00,59.6,28.1,30.11,SSW,202,2.0,8.0,30,0.00,,---,0.00,VWS V14.01,2013-03-30 20:25:00,
2013-03-30 16:30:00,60.0,26.8,30.11,WSW,248,4.0,10.0,28,0.00,,---,0.00,VWS V14.01,2013-03-30 20:30:00,
2013-03-30 16:35:00,59.8,27.5,30.11,WSW,248,5.0,11.0,29,0.00,,---,0.00,VWS V14.01,2013-03-30 20:35:00,
2013-03-30 16:40:00,59.5,26.4,30.11,West,270,2.0,7.0,28,0.00,,---,0.00,VWS V14.01,2013-03-30 20:40:00,
2013-03-30 16:45:00,59.2,25.3,30.11,West,270,3.0,10.0,27,0.00,,---,0.00,VWS V14.01,2013-03-30 20:45:00,
2013-03-30 16:50:00,58.7,24.8,30.11,SSE,158,3.0,7.0,27,0.00,,---,0.00,VWS V14.01,2013-03-30 20:50:00,
2013-03-30 16:55:00,58.4,27.1,30.11,NNW,338,2.0,4.0,30,0.00,,---,0.00,VWS V14.01,2013-03-30 20:55:00,
2013-03-30 17:00:00,58.7,27.4,30.11,NW,315,0.0,2.0,30,0.00,,---,0.00,VWS V14.01,2013-03-30 21:00:00,
2013-03-30 17:05:00,59.3,26.2,30.11,NW,315,4.0,10.0,28,0.00,,---,0.00,VWS V14.01,2013-03-30 21:05:00,
2013-03-30 17:10:00,59.8,25.8,30.11,WNW,292,4.0,10.0,27,0.00,,---,0.00,VWS V14.01,2013-03-30 21:10:00,
2013-03-30 17:15:00,60.0,26.0,30.10,West,270,7.0,14.0,27,0.00,,---,0.00,VWS V14.01,2013-03-30 21:15:00,
2013-03-30 17:20:00,59.8,24.9,30.10,West,270,4.0,9.0,26,0.00,,---,0.00,VWS V14.01,2013-03-30 21:20:00,
2013-03-30 17:25:00,59.6,26.5,30.10,WSW,248,3.0,7.0,28,0.00,,---,0.00,VWS V14.01,2013-03-30 21:25:00,
2013-03-30 17:30:00,59.6,26.5,30.10,NW,315,4.0,10.0,28,0.00,,---,0.00,VWS V14.01,2013-03-30 21:30:00,
2013-03-30 17:35:00,59.6,25.6,30.10,SW,225,6.0,12.0,27,0.00,,---,0.00,VWS V14.01,2013-03-30 21:35:00,
2013-03-30 17:40:00,59.6,26.5,30.10,SSW,202,5.0,13.0,28,0.00,,---,0.00,VWS V14.01,2013-03-30 21:40:00,
2013-03-30 17:45:00,59.6,28.1,30.09,WSW,248,6.0,12.0,30,0.00,,---,0.00,VWS V14.01,2013-03-30 21:45:00,
2013-03-30 17:50:00,59.6,25.6,30.09,West,270,8.0,19.0,27,0.00,,---,0.00,VWS V14.01,2013-03-30 21:50:00,
2013-03-30 17:55:00,59.6,26.5,30.09,SW,225,6.0,11.0,28,0.00,,---,0.00,VWS V14.01,2013-03-30 21:55:00,
2013-03-30 18:00:00,59.6,25.6,30.09,WSW,248,3.0,13.0,27,0.00,,---,0.00,VWS V14.01,2013-03-30 22:00:00,
2013-03-30 18:05:00,59.8,26.6,30.09,SW,225,3.0,6.0,28,0.00,,---,0.00,VWS V14.01,2013-03-30 22:05:00,
2013-03-30 18:10:00,59.8,26.6,30.09,WSW,248,5.0,11.0,28,0.00,,---,0.00,VWS V14.01,2013-03-30 22:10:00,
2013-03-30 18:15:00,59.8,26.6,30.09,WSW,248,3.0,8.0,28,0.00,,---,0.00,VWS V14.01,2013-03-30 22:15:00,
2013-03-30 18:20:00,59.8,29.9,30.09,SSW,202,2.0,4.0,32,0.00,,---,0.00,VWS V14.01,2013-03-30 22:20:00,
2013-03-30 18:25:00,59.6,26.5,30.09,SSW,202,6.0,11.0,28,0.00,,---,0.00,VWS V14.01,2013-03-30 22:25:00,
2013-03-30 18:30:00,59.5,27.2,30.09,SW,225,6.0,11.0,29,0.00,,---,0.00,VWS V14.01,2013-03-30 22:30:00,
2013-03-30 18:35:00,59.3,27.9,30.09,SSW,202,6.0,12.0,30,0.00,,---,0.00,VWS V14.01,2013-03-30 22:35:00,
2013-03-30 18:40:00,59.0,26.0,30.09,SW,225,6.0,11.0,28,0.00,,---,0.00,VWS V14.01,2013-03-30 22:40:00,
2013-03-30 18:45:00,59.0,27.6,30.09,WSW,248,5.0,10.0,30,0.00,,---,0.00,VWS V14.01,2013-03-30 22:45:00,
2013-03-30 18:50:00,58.7,27.4,30.09,South,180,5.0,9.0,30,0.00,,---,0.00,VWS V14.01,2013-03-30 22:50:00,
2013-03-30 18:55:00,58.6,26.5,30.09,SSE,158,4.0,7.0,29,0.00,,---,0.00,VWS V14.01,2013-03-30 22:55:00,
2013-03-30 19:00:00,58.4,28.7,30.09,SSE,158,4.0,10.0,32,0.00,,---,0.00,VWS V14.01,2013-03-30 23:00:00,
2013-03-30 19:05:00,58.4,27.9,30.09,South,180,3.0,6.0,31,0.00,,---,0.00,VWS V14.01,2013-03-30 23:05:00,
2013-03-30 19:10:00,58.4,27.9,30.09,South,180,2.0,4.0,31,0.00,,---,0.00,VWS V14.01,2013-03-30 23:10:00,
2013-03-30 19:15:00,58.4,26.3,30.09,SW,225,2.0,5.0,29,0.00,,---,0.00,VWS V14.01,2013-03-30 23:15:00,
2013-03-30 19:20:00,58.4,26.3,30.09,SW,225,2.0,3.0,29,0.00,,---,0.00,VWS V14.01,2013-03-30 23:20:00,
2013-03-30 19:25:00,58.4,27.1,30.09,West,270,0.0,1.0,30,0.00,,---,0.00,VWS V14.01,2013-03-30 23:25:00,
2013-03-30 19:30:00,58.4,27.1,30.08,West,270,0.0,3.0,30,0.00,,---,0.00,VWS V14.01,2013-03-30 23:30:00,
2013-03-30 19:35:00,58.1,26.9,30.08,West,270,1.0,3.0,30,0.00,,---,0.00,VWS V14.01,2013-03-30 23:35:00,
2013-03-30 19:40:00,58.0,26.8,30.08,West,270,0.0,0.0,30,0.00,,---,0.00,VWS V14.01,2013-03-30 23:40:00,
2013-03-30 19:45:00,57.8,27.4,30.09,West,270,1.0,2.0,31,0.00,,---,0.00,VWS V14.01,2013-03-30 23:45:00,
2013-03-30 19:50:00,57.7,28.1,30.09,West,270,1.0,2.0,32,0.00,,---,0.00,VWS V14.01,2013-03-30 23:50:00,
2013-03-30 19:55:00,57.5,29.4,30.09,SW,225,1.0,3.0,34,0.00,,---,0.00,VWS V14.01,2013-03-30 23:55:00,
2013-03-30 20:00:00,57.2,28.4,30.09,South,180,3.0,5.0,33,0.00,,---,0.00,VWS V14.01,2013-03-31 00:00:00,
2013-03-30 20:05:00,56.7,27.2,30.09,South,180,2.0,4.0,32,0.00,,---,0.00,VWS V14.01,2013-03-31 00:05:00,
2013-03-30 20:10:00,56.3,28.3,30.09,South,180,1.0,4.0,34,0.00,,---,0.00,VWS V14.01,2013-03-31 00:10:00,
2013-03-30 20:15:00,55.8,29.3,30.09,South,180,0.0,2.0,36,0.00,,---,0.00,VWS V14.01,2013-03-31 00:15:00,
2013-03-30 20:20:00,55.3,30.8,30.09,WSW,248,2.0,3.0,39,0.00,,---,0.00,VWS V14.01,2013-03-31 00:20:00,
2013-03-30 20:25:00,54.5,32.5,30.09,WSW,248,2.0,3.0,43,0.00,,---,0.00,VWS V14.01,2013-03-31 00:25:00,
2013-03-30 20:30:00,53.6,32.2,30.10,West,270,3.0,4.0,44,0.00,,---,0.00,VWS V14.01,2013-03-31 00:30:00,
2013-03-30 20:35:00,52.6,30.8,30.10,WNW,292,3.0,5.0,43,0.00,,---,0.00,VWS V14.01,2013-03-31 00:35:00,
2013-03-30 20:40:00,51.9,30.7,30.10,WNW,292,3.0,4.0,44,0.00,,---,0.00,VWS V14.01,2013-03-31 00:40:00,
2013-03-30 20:45:00,51.3,29.6,30.11,WNW,292,3.0,4.0,43,0.00,,---,0.00,VWS V14.01,2013-03-31 00:45:00,
2013-03-30 20:50:00,50.8,29.1,30.11,WNW,292,3.0,4.0,43,0.00,,---,0.00,VWS V14.01,2013-03-31 00:50:00,
2013-03-30 20:55:00,50.4,28.8,30.11,WNW,292,4.0,4.0,43,0.00,,---,0.00,VWS V14.01,2013-03-31 00:55:00,
2013-03-30 21:00:00,49.9,28.9,30.11,NW,315,4.0,5.0,44,0.00,,---,0.00,VWS V14.01,2013-03-31 01:00:00,
2013-03-30 21:05:00,49.5,28.0,30.11,NW,315,4.0,5.0,43,0.00,,---,0.00,VWS V14.01,2013-03-31 01:05:00,
2013-03-30 21:10:00,49.2,28.8,30.11,NW,315,4.0,5.0,45,0.00,,---,0.00,VWS V14.01,2013-03-31 01:10:00,
2013-03-30 21:15:00,48.9,27.4,30.11,NW,315,4.0,5.0,43,0.00,,---,0.00,VWS V14.01,2013-03-31 01:15:00,
2013-03-30 21:20:00,48.6,28.2,30.11,NW,315,3.0,5.0,45,0.00,,---,0.00,VWS V14.01,2013-03-31 01:20:00,
2013-03-30 21:25:00,48.3,27.4,30.11,NW,315,4.0,5.0,44,0.00,,---,0.00,VWS V14.01,2013-03-31 01:25:00,
2013-03-30 21:30:00,48.0,28.2,30.11,NW,315,4.0,5.0,46,0.00,,---,0.00,VWS V14.01,2013-03-31 01:30:00,
2013-03-30 21:35:00,47.9,27.0,30.11,NW,315,4.0,5.0,44,0.00,,---,0.00,VWS V14.01,2013-03-31 01:35:00,
2013-03-30 21:40:00,47.7,27.4,30.11,NW,315,4.0,5.0,45,0.00,,---,0.00,VWS V14.01,2013-03-31 01:40:00,
2013-03-30 21:45:00,47.7,26.9,30.11,North,0,3.0,5.0,44,0.00,,---,0.00,VWS V14.01,2013-03-31 01:45:00,
2013-03-30 21:50:00,47.6,27.3,30.11,North,0,3.0,4.0,45,0.00,,---,0.00,VWS V14.01,2013-03-31 01:50:00,
2013-03-30 21:55:00,47.4,27.1,30.11,North,0,3.0,4.0,45,0.00,,---,0.00,VWS V14.01,2013-03-31 01:55:00,
2013-03-30 22:00:00,47.4,27.1,30.11,North,0,3.0,4.0,45,0.00,,---,0.00,VWS V14.01,2013-03-31 02:00:00,
2013-03-30 22:05:00,47.3,28.6,30.11,North,0,3.0,4.0,48,0.00,,---,0.00,VWS V14.01,2013-03-31 02:05:00,
2013-03-30 22:10:00,47.0,27.8,30.11,North,0,4.0,5.0,47,0.00,,---,0.00,VWS V14.01,2013-03-31 02:10:00,
2013-03-30 22:15:00,47.0,26.8,30.11,North,0,3.0,6.0,45,0.00,,---,0.00,VWS V14.01,2013-03-31 02:15:00,
2013-03-30 22:20:00,47.0,27.8,30.11,North,0,0.0,2.0,47,0.00,,---,0.00,VWS V14.01,2013-03-31 02:20:00,
2013-03-30 22:25:00,46.8,28.2,30.11,North,0,1.0,2.0,48,0.00,,---,0.00,VWS V14.01,2013-03-31 02:25:00,
2013-03-30 22:30:00,46.5,27.9,30.11,North,0,1.0,3.0,48,0.00,,---,0.00,VWS V14.01,2013-03-31 02:30:00,
2013-03-30 22:35:00,46.4,27.8,30.11,North,0,3.0,4.0,48,0.00,,---,0.00,VWS V14.01,2013-03-31 02:35:00,
2013-03-30 22:40:00,46.2,28.1,30.11,North,0,4.0,5.0,49,0.00,,---,0.00,VWS V14.01,2013-03-31 02:40:00,
2013-03-30 22:45:00,46.1,28.5,30.11,NNW,338,3.0,4.0,50,0.00,,---,0.00,VWS V14.01,2013-03-31 02:45:00,
2013-03-30 22:50:00,45.9,28.8,30.11,NNW,338,1.0,3.0,51,0.00,,---,0.00,VWS V14.01,2013-03-31 02:50:00,
2013-03-30 22:55:00,45.6,29.5,30.11,NNW,338,1.0,3.0,53,0.00,,---,0.00,VWS V14.01,2013-03-31 02:55:00,
2013-03-30 23:00:00,45.6,28.0,30.11,NNW,338,2.0,4.0,50,0.00,,---,0.00,VWS V14.01,2013-03-31 03:00:00,
2013-03-30 23:05:00,45.9,28.8,30.11,NNW,338,3.0,4.0,51,0.00,,---,0.00,VWS V14.01,2013-03-31 03:05:00,
2013-03-30 23:10:00,45.9,29.3,30.11,NNW,338,1.0,3.0,52,0.00,,---,0.00,VWS V14.01,2013-03-31 03:10:00,
2013-03-30 23:15:00,45.9,28.8,30.11,NNW,338,1.0,3.0,51,0.00,,---,0.00,VWS V14.01,2013-03-31 03:15:00,
2013-03-30 23:20:00,45.9,29.8,30.11,NNW,338,3.0,4.0,53,0.00,,---,0.00,VWS V14.01,2013-03-31 03:20:00,
2013-03-30 23:25:00,45.8,28.7,30.11,NNW,338,3.0,5.0,51,0.00,,---,0.00,VWS V14.01,2013-03-31 03:25:00,
2013-03-30 23:30:00,45.8,28.7,30.11,NNW,338,3.0,4.0,51,0.00,,---,0.00,VWS V14.01,2013-03-31 03:30:00,
2013-03-30 23:35:00,45.9,29.3,30.11,North,0,3.0,5.0,52,0.00,,---,0.00,VWS V14.01,2013-03-31 03:35:00,
2013-03-30 23:40:00,45.8,30.6,30.11,North,0,1.0,3.0,55,0.00,,---,0.00,VWS V14.01,2013-03-31 03:40:00,
2013-03-30 23:45:00,45.3,28.2,30.11,North,0,1.0,3.0,51,0.00,,---,0.00,VWS V14.01,2013-03-31 03:45:00,
2013-03-30 23:50:00,45.3,27.3,30.11,North,0,1.0,3.0,49,0.00,,---,0.00,VWS V14.01,2013-03-31 03:50:00,
2013-03-30 23:55:00,45.6,28.0,30.11,North,0,3.0,5.0,50,0.00,,---,0.00,VWS V14.01,2013-03-31 03:55:00,